TimeEST,TemperatureF,Dew PointF,Humidity,Sea Level PressureIn,VisibilityMPH,Wind Direction,Wind SpeedMPH,Gust SpeedMPH,PrecipitationIn,Events,Conditions,WindDirDegrees,DateUTC
12:15 AM,23.2,12.6,64,29.99,5.0,NNW,20.7,28.8,N/A,,Haze,330,2013-01-17 05:15:00
12:34 AM,22.6,17.6,81,30.00,7.0,North,16.1,26.5,N/A,Snow,Light Snow,360,2013-01-17 05:34:00
12:55 AM,21.9,15.4,76,30.02,10.0,North,15.0,25.3,N/A,,Overcast,360,2013-01-17 05:55:00
1:15 AM,21.4,14.0,73,30.02,10.0,NNW,15.0,23.0,N/A,,Overcast,330,2013-01-17 06:15:00
1:34 AM,21.0,14.0,74,30.04,10.0,North,15.0,20.7,N/A,,Overcast,350,2013-01-17 06:34:00
1:55 AM,20.7,12.4,70,30.05,10.0,North,15.0,23.0,N/A,,Overcast,350,2013-01-17 06:55:00
2:14 AM,19.8,11.8,71,30.06,10.0,NNW,15.0,20.7,N/A,,Overcast,340,2013-01-17 07:14:00
2:35 AM,19.4,11.3,71,30.09,10.0,North,11.5,20.7,N/A,,Overcast,350,2013-01-17 07:35:00
2:54 AM,18.5,10.8,72,30.09,10.0,North,17.3,23.0,N/A,,Overcast,360,2013-01-17 07:54:00
3:15 AM,18.3,11.1,73,30.11,10.0,North,10.4,17.3,N/A,,Overcast,350,2013-01-17 08:15:00
3:34 AM,18.3,9.1,67,30.12,10.0,NNW,13.8,20.7,N/A,,Overcast,330,2013-01-17 08:34:00
3:55 AM,17.8,9.3,69,30.12,7.0,NNW,11.5,19.6,N/A,,Overcast,330,2013-01-17 08:55:00
4:35 AM,17.1,6.8,64,30.13,10.0,NNW,15.0,21.9,N/A,,Overcast,330,2013-01-17 09:35:00
4:54 AM,16.7,7.3,67,30.14,10.0,NNW,11.5,21.9,N/A,,Overcast,340,2013-01-17 09:54:00
5:15 AM,16.5,6.6,65,30.14,10.0,NNW,11.5,19.6,N/A,,Overcast,340,2013-01-17 10:15:00
5:34 AM,16.2,7.3,68,30.16,10.0,NNW,9.2,21.9,N/A,,Overcast,330,2013-01-17 10:34:00
5:55 AM,15.8,8.1,72,30.16,7.0,NNW,13.8,20.7,N/A,,Overcast,340,2013-01-17 10:55:00
6:15 AM,15.8,8.4,73,30.16,5.0,NNW,11.5,17.3,N/A,,Haze,340,2013-01-17 11:15:00
6:34 AM,16.0,8.4,72,30.17,10.0,North,11.5,18.4,N/A,,Overcast,350,2013-01-17 11:34:00
6:55 AM,15.8,7.7,70,30.17,7.0,NNW,11.5,17.3,N/A,,Overcast,330,2013-01-17 11:55:00
7:14 AM,16.2,8.6,72,30.17,7.0,North,9.2,-,N/A,,Overcast,350,2013-01-17 12:14:00
7:34 AM,15.8,9.7,77,30.18,4.0,NNW,10.4,-,N/A,Snow,Light Snow,340,2013-01-17 12:34:00
7:55 AM,15.8,10.2,79,30.19,2.5,NNW,10.4,-,N/A,Snow,Light Snow,340,2013-01-17 12:55:00
8:14 AM,15.8,10.6,80,30.19,1.8,NW,8.1,-,N/A,Snow,Light Snow,320,2013-01-17 13:14:00
8:35 AM,16.3,11.3,81,30.20,1.2,NW,6.9,-,N/A,Snow,Light Snow,320,2013-01-17 13:35:00
8:55 AM,16.9,9.1,72,30.21,7.0,West,12.7,18.4,N/A,,Overcast,280,2013-01-17 13:55:00
9:14 AM,16.7,7.5,67,30.22,10.0,WNW,16.1,21.9,N/A,,Overcast,290,2013-01-17 14:14:00
9:35 AM,16.5,6.6,65,30.23,5.0,WNW,16.1,21.9,N/A,,Haze,290,2013-01-17 14:35:00
9:55 AM,15.8,6.4,67,30.24,4.0,West,13.8,26.5,N/A,,Haze,270,2013-01-17 14:55:00
10:14 AM,16.2,5.2,62,30.24,10.0,West,16.1,25.3,N/A,,Overcast,280,2013-01-17 15:14:00
10:35 AM,16.3,6.1,64,30.24,7.0,West,17.3,-,N/A,,Overcast,280,2013-01-17 15:35:00
10:55 AM,15.6,5.2,63,30.25,5.0,West,17.3,-,N/A,,Haze,280,2013-01-17 15:55:00
11:14 AM,15.6,6.8,68,30.24,2.5,West,17.3,21.9,N/A,,Haze,270,2013-01-17 16:14:00
11:35 AM,14.9,5.5,66,30.23,2.0,West,19.6,24.2,N/A,,Haze,280,2013-01-17 16:35:00
11:54 AM,15.6,6.1,66,30.23,3.0,West,18.4,26.5,N/A,,Haze,280,2013-01-17 16:54:00
12:15 PM,15.3,5.0,64,30.22,4.0,West,18.4,24.2,N/A,,Haze,270,2013-01-17 17:15:00
12:34 PM,15.4,3.7,60,30.22,4.0,WNW,17.3,25.3,N/A,,Haze,290,2013-01-17 17:34:00
12:55 PM,16.2,5.2,62,30.21,5.0,WNW,18.4,25.3,N/A,,Haze,290,2013-01-17 17:55:00
1:15 PM,14.9,5.2,65,30.21,4.0,West,23.0,26.5,N/A,,Haze,270,2013-01-17 18:15:00
1:35 PM,14.7,5.4,66,30.21,5.0,West,24.2,31.1,N/A,,Haze,280,2013-01-17 18:35:00
1:55 PM,14.9,3.2,60,30.20,5.0,West,20.7,27.6,N/A,,Haze,280,2013-01-17 18:55:00
2:15 PM,14.5,3.9,63,30.20,5.0,WNW,23.0,29.9,N/A,,Haze,290,2013-01-17 19:15:00
2:35 PM,14.7,4.3,63,30.19,4.0,WNW,23.0,29.9,N/A,,Haze,290,2013-01-17 19:35:00
2:55 PM,14.2,7.2,74,30.20,1.5,West,21.9,29.9,N/A,Snow,Light Snow,270,2013-01-17 19:55:00
3:14 PM,14.4,7.2,73,30.19,1.5,West,17.3,27.6,N/A,Snow,Light Snow,280,2013-01-17 20:14:00
3:35 PM,14.7,3.9,62,30.19,2.5,West,19.6,27.6,N/A,,Haze,280,2013-01-17 20:35:00
3:55 PM,14.9,3.9,62,30.20,4.0,WNW,17.3,29.9,N/A,,Haze,290,2013-01-17 20:55:00
4:14 PM,14.9,2.8,59,30.20,7.0,WNW,19.6,28.8,N/A,,Overcast,300,2013-01-17 21:14:00
4:35 PM,15.4,4.5,62,30.21,5.0,WNW,21.9,27.6,N/A,Snow,Light Snow,290,2013-01-17 21:35:00
4:54 PM,15.3,3.0,58,30.21,3.0,WNW,19.6,25.3,N/A,,Haze,300,2013-01-17 21:54:00
5:15 PM,15.4,1.4,54,30.22,5.0,WNW,16.1,29.9,N/A,,Haze,300,2013-01-17 22:15:00
5:34 PM,15.6,2.5,56,30.23,5.0,WNW,16.1,26.5,N/A,,Haze,300,2013-01-17 22:34:00
5:54 PM,15.6,2.3,56,30.23,10.0,WNW,17.3,25.3,N/A,,Overcast,290,2013-01-17 22:54:00
6:15 PM,15.8,1.8,54,30.24,7.0,NW,13.8,32.2,N/A,,Overcast,310,2013-01-17 23:15:00
6:34 PM,15.6,1.8,54,30.25,10.0,WNW,16.1,21.9,N/A,,Overcast,300,2013-01-17 23:34:00
6:55 PM,15.4,0.3,51,30.26,10.0,NW,16.1,25.3,N/A,,Overcast,310,2013-01-17 23:55:00
7:14 PM,15.3,4.5,62,30.27,5.0,WNW,19.6,29.9,N/A,,Haze,300,2013-01-18 00:14:00
7:35 PM,15.3,2.5,57,30.27,7.0,WNW,19.6,25.3,N/A,,Overcast,290,2013-01-18 00:35:00
7:54 PM,14.9,0.1,52,30.28,10.0,WNW,21.9,29.9,N/A,,Overcast,300,2013-01-18 00:54:00
8:15 PM,14.9,2.8,59,30.28,10.0,WNW,18.4,25.3,N/A,,Overcast,290,2013-01-18 01:15:00
8:35 PM,14.7,0.7,54,30.29,7.0,WNW,17.3,33.4,N/A,,Overcast,290,2013-01-18 01:35:00
8:54 PM,14.5,1.8,57,30.29,10.0,WNW,16.1,25.3,N/A,,Overcast,300,2013-01-18 01:54:00
9:15 PM,14.5,3.9,63,30.30,5.0,WNW,17.3,25.3,N/A,Snow,Light Snow,300,2013-01-18 02:15:00
9:55 PM,14.0,0.9,56,30.30,10.0,WNW,17.3,26.5,N/A,,Mostly Cloudy,290,2013-01-18 02:55:00
10:14 PM,14.4,2.1,58,30.30,10.0,WNW,23.0,33.4,N/A,,Overcast,300,2013-01-18 03:14:00
10:35 PM,14.4,2.7,60,30.30,10.0,West,20.7,26.5,N/A,,Overcast,280,2013-01-18 03:35:00
10:54 PM,14.4,2.1,58,30.30,10.0,West,13.8,-,N/A,,Overcast,280,2013-01-18 03:54:00
11:15 PM,14.5,2.7,59,30.29,10.0,NW,15.0,-,N/A,,Overcast,310,2013-01-18 04:15:00
11:34 PM,14.7,3.6,61,30.30,7.0,WNW,18.4,23.0,N/A,,Overcast,300,2013-01-18 04:34:00
11:55 PM,14.7,3.6,61,30.30,7.0,WNW,12.7,20.7,N/A,,Overcast,290,2013-01-18 04:55:00